Bennington, Vermont
Current Conditions -  °F | °C
As of 7:54 PM on Saturday 25 Oct 2014 (Local Time) from KDDH Reporting Station
Overcast Overcast  
Wind Chill: 57°   Ceiling: 6000
Heat Index: 57°   Visibility: 10mi
Dew Point: 42°   Wind: 6mph
Humidity: 57%   Direction: NA
Pressure: 29.53"   Gusts: NA
Location:  42.88°N, 73.2°W
Report Text: KDDH 252354Z AUTO VRB05KT 10SM BKN060 OVC085 14/06 A2953 RMK AO2 SLP001 T01390056 10156 20122 56026
Loading
Personal Weather Stations






























Interactive Weather Map
Tropical Storm Tracking
New forecast layout! Learn more

10-Day Weather Forecast

Advertisements
Track Severe Weather on mobile